Time;durP1;ratioP1;P1;durP2;ratioP2;P2;SDS_P1;SDS_P2;PMS_P1;PMS_P2;Temp;Humidity;BMP_temperature;BMP_pressure;BME280_temperature;BME280_humidity;BME280_pressure;Samples;Min_cycle;Max_cycle;Signal;HPM_P1;HPM_P2
2022/08/14 00:01:35;;;;;;;4.50;4.20;;;;;;;19.58;70.44;99291.52;447381;1271;144714;-62
2022/08/14 00:11:41;;;;;;;5.00;4.60;;;;;;;19.71;70.02;99282.55;446690;1271;198583;-63
2022/08/14 00:21:48;;;;;;;5.60;4.80;;;;;;;19.75;69.77;99274.85;447425;1271;142702;-63
2022/08/14 00:31:55;;;;;;;5.30;4.80;;;;;;;19.65;69.79;99265.09;446656;1271;143984;-63
2022/08/14 00:42:01;;;;;;;5.30;4.70;;;;;;;19.56;69.80;99247.30;447469;1270;142943;-63
2022/08/14 00:52:08;;;;;;;4.80;4.40;;;;;;;19.46;70.01;99232.13;447451;1271;142478;-62
2022/08/14 01:02:23;;;;;;;6.40;5.00;;;;;;;19.39;70.26;99229.48;446716;1271;142498;-61
2022/08/14 01:12:33;;;;;;;6.10;5.50;;;;;;;19.43;70.34;99226.72;447527;1271;141696;-63
2022/08/14 01:22:46;;;;;;;7.30;5.00;;;;;;;19.45;70.55;99223.88;446699;1271;142451;-63
2022/08/14 01:32:53;;;;;;;5.30;4.80;;;;;;;19.46;70.66;99213.27;447470;1271;143142;-62
2022/08/14 01:42:59;;;;;;;5.50;4.60;;;;;;;19.46;70.79;99211.13;447461;1271;141573;-62
2022/08/14 01:53:07;;;;;;;6.40;5.10;;;;;;;19.52;70.59;99211.59;446662;1271;143673;-62
2022/08/14 02:03:13;;;;;;;5.20;4.80;;;;;;;19.52;70.81;99214.79;447437;1271;143806;-62
2022/08/14 02:13:20;;;;;;;5.90;5.30;;;;;;;19.56;71.01;99220.91;447402;1270;141855;-62
2022/08/14 02:23:26;;;;;;;5.20;4.80;;;;;;;19.60;71.29;99211.56;446700;1271;145735;-62
2022/08/14 02:33:41;;;;;;;5.40;4.80;;;;;;;19.64;71.54;99206.02;447412;1271;142951;-62
2022/08/14 02:43:47;;;;;;;7.10;6.40;;;;;;;19.62;71.95;99202.16;446676;1271;142721;-62
2022/08/14 02:53:54;;;;;;;6.40;5.90;;;;;;;19.37;73.27;99196.31;447431;1271;142718;-62
2022/08/14 03:04:00;;;;;;;5.60;5.10;;;;;;;19.10;74.47;99194.78;447586;1269;142163;-63
2022/08/14 03:14:08;;;;;;;10.80;7.30;;;;;;;18.91;75.33;99184.06;446627;1271;142759;-63
2022/08/14 03:24:15;;;;;;;6.20;5.70;;;;;;;18.66;76.21;99175.90;447386;1271;142846;-62
2022/08/14 03:34:28;;;;;;;7.10;6.20;;;;;;;18.45;77.25;99160.36;447440;1271;143439;-62
2022/08/14 03:44:54;;;;;;;7.20;6.50;;;;;;;18.41;78.09;99156.52;447389;1271;141197;-62
2022/08/14 03:55:20;;;;;;;8.80;6.50;;;;;;;18.42;78.65;99156.26;447399;1271;141492;-61
2022/08/14 04:05:27;;;;;;;6.90;6.10;;;;;;;18.48;79.07;99149.98;446677;1271;141924;-60
2022/08/14 04:15:43;;;;;;;6.80;6.30;;;;;;;18.62;79.28;99150.98;447410;1271;141113;-62
2022/08/14 04:26:11;;;;;;;6.70;6.00;;;;;;;18.86;79.33;99139.23;446650;1271;142333;-61
2022/08/14 04:43:34;;;;;;;7.20;6.50;;;;;;;19.22;78.89;99137.91;447365;1271;141670;-62
2022/08/14 04:57:17;;;;;;;7.80;7.10;;;;;;;19.88;77.62;99154.41;447335;1271;141968;-62
2022/08/14 05:07:23;;;;;;;10.50;7.30;;;;;;;20.43;76.76;99156.21;446098;1271;142510;-62
2022/08/14 05:17:49;;;;;;;7.20;6.50;;;;;;;21.30;75.50;99150.63;432797;1271;142585;-62
2022/08/14 05:28:18;;;;;;;7.40;6.70;;;;;;;22.97;72.54;99148.88;447402;1271;142501;-62
2022/08/14 05:38:25;;;;;;;10.20;6.50;;;;;;;22.77;70.14;99137.09;446584;1271;142911;-62
2022/08/14 05:48:36;;;;;;;7.90;7.20;;;;;;;21.60;71.49;99141.38;447371;1271;143971;-61
2022/08/14 05:58:48;;;;;;;7.80;7.00;;;;;;;21.03;72.76;99134.14;446644;1269;142910;-62
2022/08/14 06:08:54;;;;;;;8.90;8.10;;;;;;;21.14;73.29;99139.88;447188;1271;142693;-62
2022/08/14 06:19:00;;;;;;;9.40;8.10;;;;;;;21.46;72.78;99148.10;447374;1271;141891;-62
2022/08/14 06:29:06;;;;;;;9.40;8.50;;;;;;;21.26;72.49;99146.85;446615;1271;163334;-62
2022/08/14 06:39:12;;;;;;;8.40;7.60;;;;;;;21.03;72.80;99139.35;446358;1271;1300820;-62
2022/08/14 06:49:22;;;;;;;10.70;8.90;;;;;;;21.42;72.66;99129.62;447193;1271;142762;-62
2022/08/14 06:59:28;;;;;;;9.90;8.90;;;;;;;21.56;71.89;99130.15;446629;1271;141776;-62
2022/08/14 07:09:34;;;;;;;11.70;10.30;;;;;;;21.65;71.90;99126.71;446617;1271;142056;-61
2022/08/14 07:19:49;;;;;;;11.40;10.10;;;;;;;21.53;72.15;99128.06;446605;1271;143002;-61
2022/08/14 07:29:55;;;;;;;10.90;9.50;;;;;;;22.39;71.71;99121.83;447396;1271;143575;-62
2022/08/14 07:40:05;;;;;;;9.80;8.80;;;;;;;23.54;69.30;99113.36;447344;1270;142106;-62
2022/08/14 07:50:14;;;;;;;10.20;8.70;;;;;;;22.79;69.01;99125.17;446624;1271;186128;-63
2022/08/14 08:00:24;;;;;;;10.40;9.50;;;;;;;22.43;69.80;99122.73;447517;1270;141403;-62
2022/08/14 08:10:40;;;;;;;10.40;9.00;;;;;;;22.11;70.49;99128.04;447352;1271;142391;-61
2022/08/14 08:21:07;;;;;;;12.20;11.00;;;;;;;22.06;70.91;99127.52;447341;1271;143805;-61
2022/08/14 08:31:13;;;;;;;12.70;10.30;;;;;;;22.26;71.18;99126.42;447072;1272;145075;-62
2022/08/14 08:41:19;;;;;;;10.70;9.60;;;;;;;23.51;69.52;99129.08;446662;1271;142713;-62
2022/08/14 08:51:27;;;;;;;10.80;9.80;;;;;;;24.82;67.43;99117.52;447429;1270;142569;-61
2022/08/14 09:01:35;;;;;;;10.60;9.60;;;;;;;25.82;65.77;99113.38;447462;1271;143088;-61
2022/08/14 09:11:41;;;;;;;9.80;8.90;;;;;;;26.77;61.70;99093.33;446659;1271;141952;-61
2022/08/14 09:21:47;;;;;;;9.70;8.70;;;;;;;26.45;60.17;99086.56;447440;1271;142717;-61
2022/08/14 09:32:05;;;;;;;11.10;10.00;;;;;;;25.35;60.73;99089.96;446681;1270;141847;-64
2022/08/14 09:42:41;;;;;;;11.00;10.10;;;;;;;24.80;61.59;99092.57;447399;1270;142981;-61
2022/08/14 09:52:56;;;;;;;10.70;9.20;;;;;;;25.01;62.00;99090.36;446672;1271;148228;-62
2022/08/14 10:03:03;;;;;;;10.10;8.90;;;;;;;25.74;60.61;99089.09;447484;1270;143260;-61
2022/08/14 10:13:23;;;;;;;10.40;9.50;;;;;;;26.23;59.84;99084.23;447420;1270;142557;-62
2022/08/14 10:23:42;;;;;;;9.20;8.40;;;;;;;26.20;58.45;99071.15;446673;1271;144411;-62
2022/08/14 10:33:59;;;;;;;11.70;10.50;;;;;;;25.44;58.89;99076.96;447470;1271;142266;-61
2022/08/14 10:44:10;;;;;;;12.00;9.80;;;;;;;25.92;59.05;99063.79;446612;1271;142413;-61
2022/08/14 10:54:36;;;;;;;12.40;11.20;;;;;;;26.53;58.09;99065.49;447127;1270;144246;-64
2022/08/14 11:04:56;;;;;;;12.30;11.00;;;;;;;26.23;57.92;99059.52;446645;1271;143715;-62
2022/08/14 11:15:11;;;;;;;9.20;8.40;;;;;;;25.97;57.81;99058.27;447597;1271;142811;-62
2022/08/14 11:25:19;;;;;;;9.60;8.70;;;;;;;25.74;58.26;99057.69;447423;1269;141465;-61
2022/08/14 11:35:27;;;;;;;9.40;8.60;;;;;;;26.10;57.67;99054.91;446725;1271;146080;-63
2022/08/14 11:45:52;;;;;;;9.20;8.40;;;;;;;26.32;57.16;99051.36;447498;1271;151073;-62
2022/08/14 11:56:01;;;;;;;9.80;8.90;;;;;;;26.37;56.87;99054.92;446741;1271;144945;-63
2022/08/14 12:06:12;;;;;;;8.50;7.70;;;;;;;26.41;57.13;99052.60;447480;1271;141449;-63
2022/08/14 12:16:37;;;;;;;9.20;8.30;;;;;;;26.71;56.37;99047.98;447433;1271;144232;-62
2022/08/14 12:26:53;;;;;;;;;;;;;;;27.03;56.19;99043.05;447456;1271;141630;-62
2022/08/14 12:37:08;;;;;;;9.60;8.70;;;;;;;27.06;55.03;99048.26;447667;1271;128976;-63
2022/08/14 12:47:19;;;;;;;9.60;8.70;;;;;;;27.30;54.86;99032.33;446676;1271;141970;-61
2022/08/14 12:57:35;;;;;;;10.10;9.00;;;;;;;27.20;54.42;99025.24;447372;1271;145071;-63
2022/08/14 13:07:43;;;;;;;9.60;8.70;;;;;;;26.92;54.63;99021.71;447465;1271;146026;-62
2022/08/14 13:17:52;;;;;;;9.70;8.80;;;;;;;26.92;54.23;99003.51;447214;1271;151969;-63
2022/08/14 13:27:59;;;;;;;9.40;8.60;;;;;;;26.49;54.77;99004.23;447467;1271;142994;-62
2022/08/14 13:38:06;;;;;;;9.10;8.40;;;;;;;26.81;54.75;98978.00;446729;1271;160244;-63
2022/08/14 13:48:18;;;;;;;9.40;8.60;;;;;;;26.48;54.89;98976.86;447503;1270;141438;-62
2022/08/14 13:58:38;;;;;;;10.70;9.60;;;;;;;25.57;55.85;98951.15;447440;1270;141747;-62
2022/08/14 14:08:56;;;;;;;11.00;9.40;;;;;;;25.20;56.70;98923.75;447500;1270;142833;-62
2022/08/14 14:19:03;;;;;;;9.90;8.90;;;;;;;25.16;56.85;98904.23;447487;1270;142042;-63
2022/08/14 14:29:15;;;;;;;10.40;9.20;;;;;;;25.35;57.08;98891.73;446805;1270;142715;-62
2022/08/14 14:39:24;;;;;;;13.70;9.70;;;;;;;25.85;56.78;98888.95;447508;1271;142489;-61
2022/08/14 14:49:31;;;;;;;11.60;10.40;;;;;;;25.88;56.11;98884.11;447285;1271;143487;-62
2022/08/14 14:59:57;;;;;;;11.30;10.20;;;;;;;25.91;55.91;98877.54;447594;1269;142643;-63
2022/08/14 15:10:04;;;;;;;11.10;10.10;;;;;;;26.11;55.62;98888.88;447516;1271;142428;-63
2022/08/14 15:20:30;;;;;;;10.40;9.60;;;;;;;25.93;56.18;98900.90;446739;1271;144412;-62
2022/08/14 15:30:38;;;;;;;11.20;10.20;;;;;;;25.61;56.99;98920.60;447489;1271;142170;-62
2022/08/14 15:40:44;;;;;;;11.60;10.50;;;;;;;25.53;57.05;98932.99;446879;1271;143415;-63
2022/08/14 15:51:01;;;;;;;12.40;11.10;;;;;;;25.53;57.19;98928.36;447404;1271;195482;-61
2022/08/14 16:11:46;;;;;;;13.90;12.60;;;;;;;25.50;56.97;98909.35;447489;1271;144983;-63
2022/08/14 16:22:02;;;;;;;13.20;12.00;;;;;;;25.50;56.84;98907.61;447492;1271;142156;-63
2022/08/14 16:32:28;;;;;;;15.40;13.70;;;;;;;25.68;56.74;98900.88;446662;1271;143553;-63
2022/08/14 16:42:43;;;;;;;17.10;14.60;;;;;;;25.43;57.19;98896.84;447473;1271;142936;-63
2022/08/14 16:53:08;;;;;;;17.60;16.00;;;;;;;25.11;57.82;98891.14;446724;1271;143630;-62
2022/08/14 17:03:15;;;;;;;17.70;16.20;;;;;;;24.89;58.49;98882.11;447528;1271;141786;-62
2022/08/14 17:13:23;;;;;;;18.50;16.70;;;;;;;24.73;59.37;98864.80;447439;1271;143616;-63
2022/08/14 17:23:51;;;;;;;19.40;17.50;;;;;;;24.65;59.63;98858.00;447392;1271;142160;-63
2022/08/14 17:34:01;;;;;;;19.10;17.20;;;;;;;24.27;60.38;98858.19;447440;1270;144726;-63
2022/08/14 17:44:18;;;;;;;17.90;16.20;;;;;;;23.89;61.32;98866.55;446676;1271;143089;-62
2022/08/14 17:54:39;;;;;;;17.70;16.10;;;;;;;23.54;62.50;98889.27;447418;1271;146671;-63
2022/08/14 18:04:50;;;;;;;19.90;16.70;;;;;;;23.25;63.55;98914.41;446868;1270;143367;-63
2022/08/14 18:14:56;;;;;;;18.50;16.70;;;;;;;23.00;64.31;98917.43;447376;1271;142364;-61
2022/08/14 18:25:11;;;;;;;17.00;15.50;;;;;;;22.78;65.47;98922.30;447395;1271;142604;-62
2022/08/14 18:35:44;;;;;;;14.90;13.40;;;;;;;22.57;65.90;98906.17;445711;1271;1244977;-65
2022/08/14 18:46:05;;;;;;;14.20;13.00;;;;;;;22.36;66.41;98885.84;447403;1271;142858;-63
2022/08/14 18:57:02;;;;;;;14.10;12.90;;;;;;;22.20;67.04;98874.90;446618;1271;142340;-63
2022/08/14 19:07:18;;;;;;;12.90;11.70;;;;;;;22.07;67.57;98849.55;447402;1271;142225;-62
2022/08/14 19:17:45;;;;;;;12.00;10.90;;;;;;;21.95;67.94;98865.03;446618;1270;143171;-63
2022/08/14 19:28:21;;;;;;;13.20;11.80;;;;;;;21.85;68.49;98880.12;447384;1271;142117;-62
2022/08/14 19:38:54;;;;;;;13.90;10.90;;;;;;;21.78;68.83;98892.95;446592;1271;143333;-63
2022/08/14 19:49:03;;;;;;;14.00;12.60;;;;;;;21.74;69.31;98878.56;447383;1271;142875;-62
2022/08/14 19:59:09;;;;;;;12.00;10.70;;;;;;;21.72;69.84;98884.91;446626;1268;142865;-63
2022/08/14 20:09:17;;;;;;;12.60;10.20;;;;;;;21.55;69.69;98880.27;447381;1271;143148;-63
2022/08/14 20:19:43;;;;;;;12.90;9.80;;;;;;;21.30;69.55;98878.83;447218;1271;142451;-64
2022/08/14 20:30:04;;;;;;;8.50;7.70;;;;;;;21.07;69.01;98901.73;446665;1273;212872;-62
2022/08/14 20:40:35;;;;;;;7.10;6.50;;;;;;;20.86;68.00;98896.92;447563;1271;142224;-62
2022/08/14 20:50:55;;;;;;;5.50;5.00;;;;;;;20.66;67.31;98887.30;447296;1271;189022;-62
2022/08/14 21:01:04;;;;;;;6.10;5.60;;;;;;;20.50;66.89;98889.70;447094;1272;142171;-62
2022/08/14 21:11:18;;;;;;;10.70;9.60;;;;;;;20.37;66.76;98882.40;446609;1271;142747;-62
2022/08/14 21:21:28;;;;;;;5.00;4.50;;;;;;;20.22;66.67;98879.56;447369;1271;142813;-63
2022/08/14 21:31:47;;;;;;;5.90;5.30;;;;;;;20.05;66.75;98866.23;446648;1271;142451;-62
2022/08/14 21:42:01;;;;;;;6.90;6.20;;;;;;;19.90;66.84;98853.34;447385;1271;141679;-62
2022/08/14 21:52:14;;;;;;;5.70;5.20;;;;;;;19.81;66.93;98846.20;447416;1271;141889;-63
2022/08/14 22:02:41;;;;;;;5.40;4.90;;;;;;;19.75;67.22;98840.64;446616;1271;145759;-63
2022/08/14 22:12:57;;;;;;;6.40;5.70;;;;;;;19.69;67.51;98835.81;447412;1270;142046;-62
2022/08/14 22:23:11;;;;;;;5.30;4.80;;;;;;;19.65;67.70;98840.73;446589;1271;144556;-62
2022/08/14 22:33:18;;;;;;;5.70;5.00;;;;;;;19.59;67.68;98837.70;447391;1271;143006;-62
2022/08/14 22:43:24;;;;;;;6.20;4.30;;;;;;;19.51;67.97;98837.02;447329;1271;144501;-62
2022/08/14 22:53:31;;;;;;;5.40;4.50;;;;;;;19.41;68.20;98828.48;446589;1270;142602;-63
2022/08/14 23:03:38;;;;;;;6.70;4.90;;;;;;;19.31;68.55;98823.70;447412;1271;141301;-61
2022/08/14 23:13:47;;;;;;;7.90;5.10;;;;;;;19.18;69.12;98823.29;446613;1271;141877;-62
2022/08/14 23:23:57;;;;;;;7.90;6.20;;;;;;;19.08;69.64;98823.55;447402;1271;142830;-62
2022/08/14 23:34:04;;;;;;;7.20;6.00;;;;;;;18.99;69.96;98819.77;447415;1271;141801;-62
2022/08/14 23:44:12;;;;;;;6.80;6.10;;;;;;;18.87;70.47;98829.44;446661;1270;142266;-63
2022/08/14 23:54:18;;;;;;;8.00;5.90;;;;;;;18.78;71.05;98830.90;447581;1270;141686;-62
